PWSweather.com
Personal Weather Stations
Station Observations
THRCKWTHR1
Aveley, EssexGB RM154EL

AveleyEssexGB RM154EL

Lat: 51.5000552, Lon: 0.2501753000000235

Elevation: 98.5

Station Type: Oregon Scientific WMR88

www.facebook.com/thurrockweather

High Low Average
Temperature 46.8°F8.2°C 37.6°F3.1°C 41.1°F5.1°C
Dew Point 45.9°F7.7°C 37.0°F2.8°C 40.3°F4.6°C
Winds 12.0 mph 19.3 kmh Calm Calm 4.0 mph ENE6.4 kmh ENE
Wind Gusts 15.3 mph24.6 kmh 1.9 mph3.1 kmh 7.0 mph11.3 kmh
Humidity 98% 90% 97%
Pressure 30.09 in1019.0 mb 29.98 in1015.2 mb -
Precipitation 0.05 in1.3 mm - -
Hour Temp Dew Point Humidity Winds Wind Gusts Pressure Precip Precip Rate Daily Precip Total
12:00 AM 40.8°F4.9°C 38.1°F3.4°C 90% 7.6 mph NNW12.2 kmh NNW 7.9 mph12.7 kmh 30.01 in1016.3 mb 0.00 in0.0 mm 0.00 in0.0 mm 0.00 in0.0 mm
12:05 AM 40.6°F4.8°C 37.9°F3.3°C 90% 5.2 mph NNW8.4 kmh NNW 7.9 mph12.7 kmh 30.01 in1016.3 mb 0.00 in0.0 mm 0.00 in0.0 mm 0.00 in0.0 mm
12:10 AM 40.5°F4.7°C 37.8°F3.2°C 90% 3.8 mph NW6.1 kmh NW 6.8 mph10.9 kmh 30.01 in1016.3 mb 0.00 in0.0 mm 0.00 in0.0 mm 0.00 in0.0 mm
12:15 AM 40.5°F4.7°C 38.0°F3.3°C 91% 5.2 mph N8.4 kmh N 6.5 mph10.5 kmh 30.01 in1016.3 mb 0.00 in0.0 mm 0.00 in0.0 mm 0.00 in0.0 mm
12:20 AM 40.3°F4.6°C 37.6°F3.1°C 90% 7.6 mph N12.2 kmh N 7.6 mph12.2 kmh 30.01 in1016.3 mb 0.00 in0.0 mm 0.00 in0.0 mm 0.00 in0.0 mm
12:25 AM 40.3°F4.6°C 37.9°F3.3°C 91% 7.4 mph NNE11.9 kmh NNE 7.6 mph12.2 kmh 30.01 in1016.3 mb 0.00 in0.0 mm 0.00 in0.0 mm 0.00 in0.0 mm
12:30 AM 40.1°F4.5°C 37.4°F3.0°C 90% 4.6 mph N7.4 kmh N 7.9 mph12.7 kmh 30.01 in1016.3 mb 0.00 in0.0 mm 0.00 in0.0 mm 0.00 in0.0 mm
12:35 AM 40.1°F4.5°C 37.4°F3.0°C 90% 3.3 mph N5.3 kmh N 8.7 mph14.0 kmh 30.01 in1016.3 mb 0.00 in0.0 mm 0.00 in0.0 mm 0.00 in0.0 mm
12:40 AM 40.1°F4.5°C 37.4°F3.0°C 90% 3.3 mph N5.3 kmh N 8.7 mph14.0 kmh 30.01 in1016.3 mb 0.00 in0.0 mm 0.00 in0.0 mm 0.00 in0.0 mm
12:45 AM 39.9°F4.4°C 37.2°F2.9°C 90% 6.0 mph N9.7 kmh N 9.8 mph15.8 kmh 30.01 in1016.3 mb 0.00 in0.0 mm 0.00 in0.0 mm 0.00 in0.0 mm
12:50 AM 39.9°F4.4°C 37.2°F2.9°C 90% 3.3 mph N5.3 kmh N 9.8 mph15.8 kmh 30.01 in1016.3 mb 0.00 in0.0 mm 0.00 in0.0 mm 0.00 in0.0 mm
12:55 AM 39.9°F4.4°C 37.2°F2.9°C 90% 8.5 mph N13.7 kmh N 8.5 mph13.7 kmh 30.01 in1016.3 mb 0.00 in0.0 mm 0.00 in0.0 mm 0.00 in0.0 mm
01:00 AM 39.7°F4.3°C 37.0°F2.8°C 90% 4.1 mph N6.6 kmh N 8.5 mph13.7 kmh 30.01 in1016.3 mb 0.00 in0.0 mm 0.00 in0.0 mm 0.00 in0.0 mm
01:05 AM 39.7°F4.3°C 37.0°F2.8°C 90% 3.8 mph N6.1 kmh N 9.8 mph15.8 kmh 30.01 in1016.3 mb 0.00 in0.0 mm 0.00 in0.0 mm 0.00 in0.0 mm
01:10 AM 39.7°F4.3°C 37.0°F2.8°C 90% 1.6 mph N2.6 kmh N 9.8 mph15.8 kmh 30.01 in1016.3 mb 0.00 in0.0 mm 0.00 in0.0 mm 0.00 in0.0 mm
01:15 AM 39.7°F4.3°C 37.0°F2.8°C 90% 1.4 mph N2.3 kmh N 9.8 mph15.8 kmh 30.01 in1016.3 mb 0.00 in0.0 mm 0.00 in0.0 mm 0.00 in0.0 mm
01:20 AM 39.7°F4.3°C 37.0°F2.8°C 90% 6.5 mph N10.5 kmh N 9.8 mph15.8 kmh 30.01 in1016.3 mb 0.00 in0.0 mm 0.00 in0.0 mm 0.00 in0.0 mm
01:25 AM 39.7°F4.3°C 37.0°F2.8°C 90% 1.4 mph N2.3 kmh N 9.8 mph15.8 kmh 30.01 in1016.3 mb 0.00 in0.0 mm 0.00 in0.0 mm 0.00 in0.0 mm
01:30 AM 39.7°F4.3°C 37.0°F2.8°C 90% 5.5 mph N8.9 kmh N 9.8 mph15.8 kmh 30.01 in1016.3 mb 0.00 in0.0 mm 0.00 in0.0 mm 0.00 in0.0 mm
01:35 AM 39.7°F4.3°C 37.0°F2.8°C 90% 1.9 mph N3.1 kmh N 9.8 mph15.8 kmh 30.01 in1016.3 mb 0.00 in0.0 mm 0.00 in0.0 mm 0.00 in0.0 mm
01:40 AM 39.7°F4.3°C 37.3°F2.9°C 91% 4.4 mph N7.1 kmh N 9.8 mph15.8 kmh 30.01 in1016.3 mb 0.00 in0.0 mm 0.00 in0.0 mm 0.00 in0.0 mm
01:45 AM 39.7°F4.3°C 37.3°F2.9°C 91% 7.4 mph N11.9 kmh N 9.8 mph15.8 kmh 30.01 in1016.3 mb 0.00 in0.0 mm 0.00 in0.0 mm 0.00 in0.0 mm
01:50 AM 39.4°F4.1°C 37.0°F2.8°C 91% 4.1 mph N6.6 kmh N 9.8 mph15.8 kmh 30.01 in1016.3 mb 0.00 in0.0 mm 0.00 in0.0 mm 0.00 in0.0 mm
01:55 AM 39.4°F4.1°C 37.0°F2.8°C 91% 5.2 mph N8.4 kmh N 10.4 mph16.7 kmh 30.01 in1016.3 mb 0.00 in0.0 mm 0.00 in0.0 mm 0.00 in0.0 mm
02:00 AM 39.6°F4.2°C 37.2°F2.9°C 91% 3.5 mph N5.6 kmh N 10.4 mph16.7 kmh 30.01 in1016.3 mb 0.00 in0.0 mm 0.00 in0.0 mm 0.00 in0.0 mm
02:05 AM 39.6°F4.2°C 37.2°F2.9°C 91% 2.5 mph N4.0 kmh N 9.6 mph15.4 kmh 30.01 in1016.3 mb 0.00 in0.0 mm 0.00 in0.0 mm 0.00 in0.0 mm
02:10 AM 39.7°F4.3°C 37.3°F2.9°C 91% 4.4 mph N7.1 kmh N 9.6 mph15.4 kmh 30.01 in1016.3 mb 0.00 in0.0 mm 0.00 in0.0 mm 0.00 in0.0 mm
02:15 AM 39.7°F4.3°C 37.3°F2.9°C 91% 4.4 mph N7.1 kmh N 6.8 mph10.9 kmh 30.01 in1016.3 mb 0.00 in0.0 mm 0.00 in0.0 mm 0.00 in0.0 mm
02:20 AM 39.9°F4.4°C 37.2°F2.9°C 90% 9.0 mph N14.5 kmh N 9.0 mph14.5 kmh 30.01 in1016.3 mb 0.00 in0.0 mm 0.00 in0.0 mm 0.00 in0.0 mm
02:25 AM 39.9°F4.4°C 37.2°F2.9°C 90% 6.8 mph N10.9 kmh N 9.0 mph14.5 kmh 30.01 in1016.3 mb 0.00 in0.0 mm 0.00 in0.0 mm 0.00 in0.0 mm
02:30 AM 39.9°F4.4°C 37.2°F2.9°C 90% 4.6 mph N7.4 kmh N 9.3 mph15.0 kmh 30.01 in1016.3 mb 0.00 in0.0 mm 0.00 in0.0 mm 0.00 in0.0 mm
02:35 AM 39.9°F4.4°C 37.5°F3.1°C 91% 3.3 mph N5.3 kmh N 9.8 mph15.8 kmh 30.01 in1016.3 mb 0.00 in0.0 mm 0.00 in0.0 mm 0.00 in0.0 mm
02:40 AM 39.7°F4.3°C 37.3°F2.9°C 91% 6.8 mph N10.9 kmh N 9.8 mph15.8 kmh 30.01 in1016.3 mb 0.00 in0.0 mm 0.00 in0.0 mm 0.00 in0.0 mm
02:45 AM 39.7°F4.3°C 37.9°F3.3°C 93% 4.1 mph N6.6 kmh N 7.1 mph11.4 kmh 30.01 in1016.3 mb 0.00 in0.0 mm 0.00 in0.0 mm 0.00 in0.0 mm
02:50 AM 39.7°F4.3°C 37.9°F3.3°C 93% 3.3 mph NNE5.3 kmh NNE 4.1 mph6.6 kmh 30.01 in1016.3 mb 0.00 in0.0 mm 0.00 in0.0 mm 0.00 in0.0 mm
02:55 AM 39.7°F4.3°C 37.9°F3.3°C 93% 3.0 mph NE4.8 kmh NE 4.1 mph6.6 kmh 30.01 in1016.3 mb 0.00 in0.0 mm 0.00 in0.0 mm 0.00 in0.0 mm
03:00 AM 39.7°F4.3°C 37.9°F3.3°C 93% 2.7 mph NE4.3 kmh NE 6.5 mph10.5 kmh 30.01 in1016.3 mb 0.00 in0.0 mm 0.00 in0.0 mm 0.00 in0.0 mm
03:05 AM 39.9°F4.4°C 38.3°F3.5°C 94% Calm Calm 6.8 mph10.9 kmh 30.01 in1016.3 mb 0.00 in0.0 mm 0.00 in0.0 mm 0.00 in0.0 mm
03:10 AM 39.9°F4.4°C 38.3°F3.5°C 94% 4.9 mph NE7.9 kmh NE 6.8 mph10.9 kmh 30.01 in1016.3 mb 0.00 in0.0 mm 0.00 in0.0 mm 0.00 in0.0 mm
03:15 AM 40.1°F4.5°C 38.5°F3.6°C 94% 5.2 mph NNE8.4 kmh NNE 5.2 mph8.4 kmh 30.04 in1017.3 mb 0.00 in0.0 mm 0.00 in0.0 mm 0.00 in0.0 mm
03:20 AM 40.1°F4.5°C 38.5°F3.6°C 94% 3.8 mph NNE6.1 kmh NNE 8.2 mph13.2 kmh 30.04 in1017.3 mb 0.00 in0.0 mm 0.00 in0.0 mm 0.00 in0.0 mm
03:25 AM 40.1°F4.5°C 38.5°F3.6°C 94% 3.3 mph N5.3 kmh N 9.8 mph15.8 kmh 30.01 in1016.3 mb 0.00 in0.0 mm 0.00 in0.0 mm 0.00 in0.0 mm
03:30 AM 39.9°F4.4°C 38.6°F3.7°C 95% 7.6 mph N12.2 kmh N 9.8 mph15.8 kmh 30.01 in1016.3 mb 0.00 in0.0 mm 0.00 in0.0 mm 0.00 in0.0 mm
03:35 AM 39.9°F4.4°C 38.9°F3.8°C 96% 4.1 mph NNE6.6 kmh NNE 7.6 mph12.2 kmh 30.01 in1016.3 mb 0.00 in0.0 mm 0.00 in0.0 mm 0.00 in0.0 mm
03:40 AM 39.9°F4.4°C 39.1°F3.9°C 97% 3.8 mph NE6.1 kmh NE 4.4 mph7.1 kmh 30.01 in1016.3 mb 0.00 in0.0 mm 0.00 in0.0 mm 0.00 in0.0 mm
03:45 AM 39.9°F4.4°C 39.4°F4.1°C 98% 3.8 mph NE6.1 kmh NE 4.4 mph7.1 kmh 30.01 in1016.3 mb 0.00 in0.0 mm 0.00 in0.0 mm 0.00 in0.0 mm
03:50 AM 39.9°F4.4°C 39.4°F4.1°C 98% Calm Calm 5.7 mph9.2 kmh 30.01 in1016.3 mb 0.00 in0.0 mm 0.00 in0.0 mm 0.00 in0.0 mm
03:55 AM 40.1°F4.5°C 39.6°F4.2°C 98% 1.1 mph N1.8 kmh N 5.7 mph9.2 kmh 30.01 in1016.3 mb 0.00 in0.0 mm 0.00 in0.0 mm 0.00 in0.0 mm
04:00 AM 40.1°F4.5°C 39.6°F4.2°C 98% 4.6 mph NNE7.4 kmh NNE 6.0 mph9.7 kmh 30.01 in1016.3 mb 0.00 in0.0 mm 0.00 in0.0 mm 0.00 in0.0 mm
04:05 AM 40.3°F4.6°C 39.8°F4.3°C 98% Calm Calm 6.8 mph10.9 kmh 30.01 in1016.3 mb 0.00 in0.0 mm 0.00 in0.0 mm 0.00 in0.0 mm
04:10 AM 40.3°F4.6°C 39.8°F4.3°C 98% 1.4 mph NE2.3 kmh NE 6.8 mph10.9 kmh 30.01 in1016.3 mb 0.00 in0.0 mm 0.00 in0.0 mm 0.00 in0.0 mm
04:15 AM 40.3°F4.6°C 39.8°F4.3°C 98% Calm Calm 6.8 mph10.9 kmh 30.04 in1017.3 mb 0.00 in0.0 mm 0.00 in0.0 mm 0.00 in0.0 mm
04:20 AM 40.3°F4.6°C 39.8°F4.3°C 98% 3.8 mph NNE6.1 kmh NNE 6.8 mph10.9 kmh 30.04 in1017.3 mb 0.00 in0.0 mm 0.00 in0.0 mm 0.00 in0.0 mm
04:25 AM 40.3°F4.6°C 39.8°F4.3°C 98% 4.1 mph ENE6.6 kmh ENE 5.2 mph8.4 kmh 30.04 in1017.3 mb 0.00 in0.0 mm 0.00 in0.0 mm 0.00 in0.0 mm
04:30 AM 40.5°F4.7°C 39.9°F4.4°C 98% 3.5 mph NE5.6 kmh NE 5.2 mph8.4 kmh 30.04 in1017.3 mb 0.00 in0.0 mm 0.00 in0.0 mm 0.00 in0.0 mm
04:35 AM 40.5°F4.7°C 39.9°F4.4°C 98% 4.4 mph NE7.1 kmh NE 7.4 mph11.9 kmh 30.04 in1017.3 mb 0.00 in0.0 mm 0.00 in0.0 mm 0.00 in0.0 mm
04:40 AM 40.5°F4.7°C 39.9°F4.4°C 98% 4.4 mph ENE7.1 kmh ENE 7.4 mph11.9 kmh 30.04 in1017.3 mb 0.00 in0.0 mm 0.00 in0.0 mm 0.00 in0.0 mm
04:45 AM 40.5°F4.7°C 39.9°F4.4°C 98% Calm Calm 4.6 mph7.4 kmh 30.04 in1017.3 mb 0.00 in0.0 mm 0.00 in0.0 mm 0.00 in0.0 mm
04:50 AM 40.5°F4.7°C 39.9°F4.4°C 98% 3.0 mph ENE4.8 kmh ENE 5.2 mph8.4 kmh 30.04 in1017.3 mb 0.00 in0.0 mm 0.00 in0.0 mm 0.00 in0.0 mm
04:55 AM 40.5°F4.7°C 39.9°F4.4°C 98% 3.5 mph NE5.6 kmh NE 5.2 mph8.4 kmh 30.04 in1017.3 mb 0.00 in0.0 mm 0.00 in0.0 mm 0.00 in0.0 mm
05:00 AM 40.5°F4.7°C 39.9°F4.4°C 98% 3.3 mph NNE5.3 kmh NNE 6.0 mph9.7 kmh 30.04 in1017.3 mb 0.00 in0.0 mm 0.00 in0.0 mm 0.00 in0.0 mm
05:05 AM 40.5°F4.7°C 39.9°F4.4°C 98% Calm Calm 6.0 mph9.7 kmh 30.04 in1017.3 mb 0.00 in0.0 mm 0.00 in0.0 mm 0.00 in0.0 mm
05:10 AM 40.5°F4.7°C 39.9°F4.4°C 98% 4.1 mph NE6.6 kmh NE 4.6 mph7.4 kmh 30.04 in1017.3 mb 0.00 in0.0 mm 0.00 in0.0 mm 0.00 in0.0 mm
05:15 AM 40.5°F4.7°C 39.9°F4.4°C 98% 5.2 mph NE8.4 kmh NE 5.7 mph9.2 kmh 30.04 in1017.3 mb 0.00 in0.0 mm 0.00 in0.0 mm 0.00 in0.0 mm
05:20 AM 40.6°F4.8°C 40.1°F4.5°C 98% Calm Calm 6.0 mph9.7 kmh 30.04 in1017.3 mb 0.00 in0.0 mm 0.00 in0.0 mm 0.00 in0.0 mm
05:25 AM 40.6°F4.8°C 40.1°F4.5°C 98% 7.6 mph N12.2 kmh N 7.6 mph12.2 kmh 30.04 in1017.3 mb 0.00 in0.0 mm 0.00 in0.0 mm 0.00 in0.0 mm
05:30 AM 40.8°F4.9°C 40.3°F4.6°C 98% 4.6 mph N7.4 kmh N 7.6 mph12.2 kmh 30.04 in1017.3 mb 0.00 in0.0 mm 0.00 in0.0 mm 0.00 in0.0 mm
05:35 AM 41.0°F5.0°C 40.5°F4.7°C 98% 3.3 mph NE5.3 kmh NE 7.6 mph12.2 kmh 30.04 in1017.3 mb 0.00 in0.0 mm 0.00 in0.0 mm 0.00 in0.0 mm
05:40 AM 41.0°F5.0°C 40.5°F4.7°C 98% 7.4 mph NE11.9 kmh NE 7.4 mph11.9 kmh 30.04 in1017.3 mb 0.00 in0.0 mm 0.00 in0.0 mm 0.00 in0.0 mm
05:45 AM 41.2°F5.1°C 40.7°F4.8°C 98% 3.3 mph NNE5.3 kmh NNE 7.4 mph11.9 kmh 30.04 in1017.3 mb 0.00 in0.0 mm 0.00 in0.0 mm 0.00 in0.0 mm
05:50 AM 41.2°F5.1°C 40.7°F4.8°C 98% Calm Calm 7.4 mph11.9 kmh 30.04 in1017.3 mb 0.00 in0.0 mm 0.00 in0.0 mm 0.00 in0.0 mm
05:55 AM 41.4°F5.2°C 40.8°F4.9°C 98% Calm Calm 7.4 mph11.9 kmh 30.04 in1017.3 mb 0.00 in0.0 mm 0.00 in0.0 mm 0.00 in0.0 mm
06:00 AM 41.4°F5.2°C 40.8°F4.9°C 98% 2.5 mph NNE4.0 kmh NNE 7.4 mph11.9 kmh 30.04 in1017.3 mb 0.00 in0.0 mm 0.00 in0.0 mm 0.00 in0.0 mm
06:05 AM 41.5°F5.3°C 41.0°F5.0°C 98% 3.5 mph NE5.6 kmh NE 9.0 mph14.5 kmh 30.04 in1017.3 mb 0.00 in0.0 mm 0.00 in0.0 mm 0.00 in0.0 mm
06:10 AM 41.5°F5.3°C 41.0°F5.0°C 98% 3.8 mph NE6.1 kmh NE 10.6 mph17.1 kmh 30.04 in1017.3 mb 0.00 in0.0 mm 0.00 in0.0 mm 0.00 in0.0 mm
06:15 AM 41.5°F5.3°C 41.0°F5.0°C 98% Calm Calm 10.6 mph17.1 kmh 30.04 in1017.3 mb 0.00 in0.0 mm 0.00 in0.0 mm 0.00 in0.0 mm
06:20 AM 41.4°F5.2°C 40.8°F4.9°C 98% 4.9 mph ENE7.9 kmh ENE 6.8 mph10.9 kmh 30.04 in1017.3 mb 0.00 in0.0 mm 0.00 in0.0 mm 0.00 in0.0 mm
06:25 AM 41.2°F5.1°C 40.7°F4.8°C 98% 3.8 mph N6.1 kmh N 7.1 mph11.4 kmh 30.04 in1017.3 mb 0.00 in0.0 mm 0.00 in0.0 mm 0.00 in0.0 mm
06:30 AM 41.2°F5.1°C 40.7°F4.8°C 98% 3.8 mph N6.1 kmh N 7.4 mph11.9 kmh 30.04 in1017.3 mb 0.00 in0.0 mm 0.00 in0.0 mm 0.00 in0.0 mm
06:35 AM 41.0°F5.0°C 40.5°F4.7°C 98% 3.3 mph NE5.3 kmh NE 11.2 mph18.0 kmh 30.04 in1017.3 mb 0.00 in0.0 mm 0.00 in0.0 mm 0.00 in0.0 mm
06:40 AM 41.0°F5.0°C 40.5°F4.7°C 98% 3.5 mph NE5.6 kmh NE 11.2 mph18.0 kmh 30.04 in1017.3 mb 0.00 in0.0 mm 0.00 in0.0 mm 0.00 in0.0 mm
06:45 AM 41.0°F5.0°C 40.5°F4.7°C 98% 4.9 mph NE7.9 kmh NE 7.9 mph12.7 kmh 30.04 in1017.3 mb 0.00 in0.0 mm 0.00 in0.0 mm 0.00 in0.0 mm
06:50 AM 41.0°F5.0°C 40.5°F4.7°C 98% 6.0 mph E9.7 kmh E 6.5 mph10.5 kmh 30.04 in1017.3 mb 0.00 in0.0 mm 0.00 in0.0 mm 0.00 in0.0 mm
06:55 AM 41.2°F5.1°C 40.7°F4.8°C 98% 6.0 mph E9.7 kmh E 7.1 mph11.4 kmh 30.04 in1017.3 mb 0.00 in0.0 mm 0.00 in0.0 mm 0.00 in0.0 mm
07:00 AM 41.2°F5.1°C 40.7°F4.8°C 98% 2.5 mph NE4.0 kmh NE 7.1 mph11.4 kmh 30.04 in1017.3 mb 0.00 in0.0 mm 0.00 in0.0 mm 0.00 in0.0 mm
07:05 AM 41.2°F5.1°C 40.7°F4.8°C 98% 5.2 mph NE8.4 kmh NE 7.9 mph12.7 kmh 30.04 in1017.3 mb 0.00 in0.0 mm 0.00 in0.0 mm 0.00 in0.0 mm
07:10 AM 41.2°F5.1°C 40.7°F4.8°C 98% 4.1 mph ENE6.6 kmh ENE 7.9 mph12.7 kmh 30.04 in1017.3 mb 0.00 in0.0 mm 0.00 in0.0 mm 0.00 in0.0 mm
07:15 AM 41.2°F5.1°C 40.7°F4.8°C 98% 5.7 mph E9.2 kmh E 7.4 mph11.9 kmh 30.04 in1017.3 mb 0.00 in0.0 mm 0.00 in0.0 mm 0.00 in0.0 mm
07:20 AM 41.4°F5.2°C 40.8°F4.9°C 98% 7.1 mph NE11.4 kmh NE 7.4 mph11.9 kmh 30.04 in1017.3 mb 0.00 in0.0 mm 0.00 in0.0 mm 0.00 in0.0 mm
07:25 AM 41.4°F5.2°C 40.8°F4.9°C 98% 6.5 mph NNE10.5 kmh NNE 7.1 mph11.4 kmh 30.04 in1017.3 mb 0.00 in0.0 mm 0.00 in0.0 mm 0.00 in0.0 mm
07:30 AM 41.2°F5.1°C 40.7°F4.8°C 98% 6.5 mph NNE10.5 kmh NNE 7.9 mph12.7 kmh 30.04 in1017.3 mb 0.00 in0.0 mm 0.00 in0.0 mm 0.00 in0.0 mm
07:35 AM 41.4°F5.2°C 40.8°F4.9°C 98% 4.6 mph NE7.4 kmh NE 7.9 mph12.7 kmh 30.04 in1017.3 mb 0.00 in0.0 mm 0.00 in0.0 mm 0.00 in0.0 mm
07:40 AM 41.4°F5.2°C 40.8°F4.9°C 98% 6.0 mph NE9.7 kmh NE 7.9 mph12.7 kmh 30.04 in1017.3 mb 0.00 in0.0 mm 0.00 in0.0 mm 0.00 in0.0 mm
07:45 AM 41.4°F5.2°C 40.8°F4.9°C 98% 7.6 mph ENE12.2 kmh ENE 7.6 mph12.2 kmh 30.07 in1018.3 mb 0.00 in0.0 mm 0.00 in0.0 mm 0.00 in0.0 mm
07:50 AM 41.4°F5.2°C 40.8°F4.9°C 98% 7.6 mph E12.2 kmh E 9.3 mph15.0 kmh 30.07 in1018.3 mb 0.00 in0.0 mm 0.00 in0.0 mm 0.00 in0.0 mm
07:55 AM 41.4°F5.2°C 40.8°F4.9°C 98% 3.8 mph ENE6.1 kmh ENE 12.6 mph20.3 kmh 30.07 in1018.3 mb 0.00 in0.0 mm 0.00 in0.0 mm 0.00 in0.0 mm
08:00 AM 41.4°F5.2°C 40.8°F4.9°C 98% 9.6 mph NE15.4 kmh NE 12.6 mph20.3 kmh 30.07 in1018.3 mb 0.00 in0.0 mm 0.00 in0.0 mm 0.00 in0.0 mm
08:05 AM 41.4°F5.2°C 40.8°F4.9°C 98% 6.8 mph NNE10.9 kmh NNE 9.8 mph15.8 kmh 30.07 in1018.3 mb 0.00 in0.0 mm 0.00 in0.0 mm 0.00 in0.0 mm
08:10 AM 41.2°F5.1°C 40.7°F4.8°C 98% 4.4 mph NNE7.1 kmh NNE 9.0 mph14.5 kmh 30.07 in1018.3 mb 0.00 in0.0 mm 0.00 in0.0 mm 0.00 in0.0 mm
08:15 AM 41.2°F5.1°C 40.7°F4.8°C 98% Calm Calm 9.0 mph14.5 kmh 30.07 in1018.3 mb 0.00 in0.0 mm 0.00 in0.0 mm 0.00 in0.0 mm
08:20 AM 40.8°F4.9°C 40.3°F4.6°C 98% 4.9 mph NNE7.9 kmh NNE 7.6 mph12.2 kmh 30.07 in1018.3 mb 0.00 in0.0 mm 0.00 in0.0 mm 0.00 in0.0 mm
08:25 AM 40.8°F4.9°C 40.3°F4.6°C 98% 7.1 mph NE11.4 kmh NE 7.6 mph12.2 kmh 30.07 in1018.3 mb 0.00 in0.0 mm 0.00 in0.0 mm 0.00 in0.0 mm
08:30 AM 40.6°F4.8°C 40.1°F4.5°C 98% 3.8 mph N6.1 kmh N 9.6 mph15.4 kmh 30.07 in1018.3 mb 0.00 in0.0 mm 0.00 in0.0 mm 0.00 in0.0 mm
08:35 AM 40.8°F4.9°C 40.3°F4.6°C 98% 3.8 mph N6.1 kmh N 9.6 mph15.4 kmh 30.07 in1018.3 mb 0.00 in0.0 mm 0.00 in0.0 mm 0.00 in0.0 mm
08:40 AM 40.8°F4.9°C 40.3°F4.6°C 98% 7.9 mph NE12.7 kmh NE 7.9 mph12.7 kmh 30.07 in1018.3 mb 0.00 in0.0 mm 0.00 in0.0 mm 0.00 in0.0 mm
08:45 AM 41.0°F5.0°C 40.5°F4.7°C 98% 3.3 mph E5.3 kmh E 7.9 mph12.7 kmh 30.09 in1019.0 mb 0.00 in0.0 mm 0.00 in0.0 mm 0.00 in0.0 mm
08:50 AM 41.0°F5.0°C 40.5°F4.7°C 98% 4.4 mph E7.1 kmh E 7.9 mph12.7 kmh 30.09 in1019.0 mb 0.00 in0.0 mm 0.00 in0.0 mm 0.00 in0.0 mm
08:55 AM 41.2°F5.1°C 40.7°F4.8°C 98% 7.4 mph NE11.9 kmh NE 7.4 mph11.9 kmh 30.09 in1019.0 mb 0.00 in0.0 mm 0.00 in0.0 mm 0.00 in0.0 mm
09:00 AM 41.4°F5.2°C 40.8°F4.9°C 98% 4.4 mph E7.1 kmh E 7.4 mph11.9 kmh 30.09 in1019.0 mb 0.00 in0.0 mm 0.00 in0.0 mm 0.00 in0.0 mm
09:05 AM 41.5°F5.3°C 41.0°F5.0°C 98% Calm Calm 7.1 mph11.4 kmh 30.09 in1019.0 mb 0.00 in0.0 mm 0.00 in0.0 mm 0.00 in0.0 mm
09:10 AM 41.9°F5.5°C 41.4°F5.2°C 98% 7.6 mph NE12.2 kmh NE 7.6 mph12.2 kmh 30.09 in1019.0 mb 0.00 in0.0 mm 0.00 in0.0 mm 0.00 in0.0 mm
09:15 AM 42.4°F5.8°C 41.9°F5.5°C 98% 1.4 mph ENE2.3 kmh ENE 9.3 mph15.0 kmh 30.09 in1019.0 mb 0.00 in0.0 mm 0.00 in0.0 mm 0.00 in0.0 mm
09:20 AM 43.0°F6.1°C 42.5°F5.8°C 98% 3.0 mph NE4.8 kmh NE 9.3 mph15.0 kmh 30.09 in1019.0 mb 0.00 in0.0 mm 0.00 in0.0 mm 0.00 in0.0 mm
09:25 AM 43.7°F6.5°C 43.2°F6.2°C 98% 12.0 mph NNE19.3 kmh NNE 12.0 mph19.3 kmh 30.09 in1019.0 mb 0.00 in0.0 mm 0.00 in0.0 mm 0.00 in0.0 mm
09:30 AM 43.9°F6.6°C 43.4°F6.3°C 98% 7.9 mph NE12.7 kmh NE 12.0 mph19.3 kmh 30.09 in1019.0 mb 0.00 in0.0 mm 0.00 in0.0 mm 0.00 in0.0 mm
09:35 AM 44.1°F6.7°C 43.5°F6.4°C 98% 3.5 mph ENE5.6 kmh ENE 8.7 mph14.0 kmh 30.09 in1019.0 mb 0.00 in0.0 mm 0.00 in0.0 mm 0.00 in0.0 mm
09:40 AM 44.4°F6.9°C 43.9°F6.6°C 98% 6.5 mph ENE10.5 kmh ENE 6.8 mph10.9 kmh 30.09 in1019.0 mb 0.00 in0.0 mm 0.00 in0.0 mm 0.00 in0.0 mm
09:45 AM 44.8°F7.1°C 44.3°F6.8°C 98% 3.5 mph ENE5.6 kmh ENE 6.8 mph10.9 kmh 30.09 in1019.0 mb 0.00 in0.0 mm 0.00 in0.0 mm 0.00 in0.0 mm
09:50 AM 44.2°F6.8°C 43.7°F6.5°C 98% 5.2 mph NE8.4 kmh NE 12.6 mph20.3 kmh 30.09 in1019.0 mb 0.00 in0.0 mm 0.00 in0.0 mm 0.00 in0.0 mm
09:55 AM 44.1°F6.7°C 43.5°F6.4°C 98% 3.8 mph NE6.1 kmh NE 12.6 mph20.3 kmh 30.09 in1019.0 mb 0.00 in0.0 mm 0.00 in0.0 mm 0.00 in0.0 mm
10:00 AM 43.7°F6.5°C 43.2°F6.2°C 98% 7.1 mph NNE11.4 kmh NNE 10.4 mph16.7 kmh 30.09 in1019.0 mb 0.00 in0.0 mm 0.00 in0.0 mm 0.00 in0.0 mm
10:05 AM 43.3°F6.3°C 42.8°F6.0°C 98% 4.9 mph NE7.9 kmh NE 10.4 mph16.7 kmh 30.09 in1019.0 mb 0.00 in0.0 mm 0.00 in0.0 mm 0.00 in0.0 mm
10:10 AM 42.8°F6.0°C 42.3°F5.7°C 98% 3.8 mph ENE6.1 kmh ENE 15.3 mph24.6 kmh 30.09 in1019.0 mb 0.00 in0.0 mm 0.00 in0.0 mm 0.00 in0.0 mm
10:15 AM 42.4°F5.8°C 41.9°F5.5°C 98% 3.5 mph E5.6 kmh E 15.3 mph24.6 kmh 30.09 in1019.0 mb 0.00 in0.0 mm 0.00 in0.0 mm 0.00 in0.0 mm
10:20 AM 42.3°F5.7°C 41.7°F5.4°C 98% 1.4 mph ENE2.3 kmh ENE 9.6 mph15.4 kmh 30.09 in1019.0 mb 0.00 in0.0 mm 0.00 in0.0 mm 0.00 in0.0 mm
10:25 AM 41.9°F5.5°C 41.4°F5.2°C 98% 3.3 mph NE5.3 kmh NE 9.6 mph15.4 kmh 30.09 in1019.0 mb 0.00 in0.0 mm 0.00 in0.0 mm 0.00 in0.0 mm
10:30 AM 41.9°F5.5°C 41.4°F5.2°C 98% 4.6 mph ENE7.4 kmh ENE 7.1 mph11.4 kmh 30.09 in1019.0 mb 0.00 in0.0 mm 0.00 in0.0 mm 0.00 in0.0 mm
10:35 AM 41.9°F5.5°C 41.4°F5.2°C 98% 3.3 mph ENE5.3 kmh ENE 7.6 mph12.2 kmh 30.09 in1019.0 mb 0.00 in0.0 mm 0.00 in0.0 mm 0.00 in0.0 mm
10:40 AM 41.7°F5.4°C 41.2°F5.1°C 98% 3.8 mph E6.1 kmh E 9.8 mph15.8 kmh 30.09 in1019.0 mb 0.00 in0.0 mm 0.00 in0.0 mm 0.00 in0.0 mm
10:45 AM 41.7°F5.4°C 41.2°F5.1°C 98% 3.3 mph ENE5.3 kmh ENE 10.4 mph16.7 kmh 30.09 in1019.0 mb 0.00 in0.0 mm 0.00 in0.0 mm 0.00 in0.0 mm
10:50 AM 41.5°F5.3°C 41.0°F5.0°C 98% 7.1 mph ENE11.4 kmh ENE 10.4 mph16.7 kmh 30.09 in1019.0 mb 0.00 in0.0 mm 0.00 in0.0 mm 0.00 in0.0 mm
10:55 AM 41.5°F5.3°C 41.0°F5.0°C 98% 4.1 mph E6.6 kmh E 7.1 mph11.4 kmh 30.09 in1019.0 mb 0.00 in0.0 mm 0.00 in0.0 mm 0.00 in0.0 mm
11:00 AM 41.7°F5.4°C 41.2°F5.1°C 98% Calm Calm 4.1 mph6.6 kmh 30.09 in1019.0 mb 0.00 in0.0 mm 0.00 in0.0 mm 0.00 in0.0 mm
11:05 AM 41.9°F5.5°C 41.4°F5.2°C 98% Calm Calm 4.4 mph7.1 kmh 30.09 in1019.0 mb 0.00 in0.0 mm 0.00 in0.0 mm 0.00 in0.0 mm
11:10 AM 42.3°F5.7°C 41.7°F5.4°C 98% 1.1 mph NE1.8 kmh NE 4.4 mph7.1 kmh 30.09 in1019.0 mb 0.00 in0.0 mm 0.00 in0.0 mm 0.00 in0.0 mm
11:15 AM 42.4°F5.8°C 41.9°F5.5°C 98% 2.5 mph NNE4.0 kmh NNE 4.6 mph7.4 kmh 30.09 in1019.0 mb 0.00 in0.0 mm 0.00 in0.0 mm 0.00 in0.0 mm
11:20 AM 43.2°F6.2°C 42.6°F5.9°C 98% Calm Calm 4.6 mph7.4 kmh 30.09 in1019.0 mb 0.00 in0.0 mm 0.00 in0.0 mm 0.00 in0.0 mm
11:25 AM 43.5°F6.4°C 43.0°F6.1°C 98% Calm Calm 7.1 mph11.4 kmh 30.09 in1019.0 mb 0.00 in0.0 mm 0.00 in0.0 mm 0.00 in0.0 mm
11:30 AM 43.7°F6.5°C 43.2°F6.2°C 98% 1.9 mph NE3.1 kmh NE 7.1 mph11.4 kmh 30.09 in1019.0 mb 0.00 in0.0 mm 0.00 in0.0 mm 0.00 in0.0 mm
11:35 AM 43.7°F6.5°C 43.2°F6.2°C 98% 1.1 mph NE1.8 kmh NE 7.4 mph11.9 kmh 30.09 in1019.0 mb 0.00 in0.0 mm 0.00 in0.0 mm 0.00 in0.0 mm
11:40 AM 44.2°F6.8°C 43.7°F6.5°C 98% 1.4 mph NE2.3 kmh NE 7.4 mph11.9 kmh 30.09 in1019.0 mb 0.00 in0.0 mm 0.00 in0.0 mm 0.00 in0.0 mm
11:45 AM 44.2°F6.8°C 43.7°F6.5°C 98% 4.1 mph ENE6.6 kmh ENE 5.5 mph8.9 kmh 30.09 in1019.0 mb 0.00 in0.0 mm 0.00 in0.0 mm 0.00 in0.0 mm
11:50 AM 44.4°F6.9°C 43.9°F6.6°C 98% 4.6 mph ENE7.4 kmh ENE 5.5 mph8.9 kmh 30.09 in1019.0 mb 0.00 in0.0 mm 0.00 in0.0 mm 0.00 in0.0 mm
11:55 AM 44.6°F7.0°C 44.1°F6.7°C 98% 3.8 mph E6.1 kmh E 6.0 mph9.7 kmh 30.09 in1019.0 mb 0.00 in0.0 mm 0.00 in0.0 mm 0.00 in0.0 mm
12:00 PM 44.4°F6.9°C 43.9°F6.6°C 98% 3.5 mph E5.6 kmh E 6.0 mph9.7 kmh 30.09 in1019.0 mb 0.00 in0.0 mm 0.00 in0.0 mm 0.00 in0.0 mm
12:05 PM 44.2°F6.8°C 43.7°F6.5°C 98% 5.2 mph ENE8.4 kmh ENE 13.4 mph21.6 kmh 30.09 in1019.0 mb 0.00 in0.0 mm 0.00 in0.0 mm 0.00 in0.0 mm
12:10 PM 43.5°F6.4°C 43.0°F6.1°C 98% 7.1 mph NE11.4 kmh NE 13.4 mph21.6 kmh 30.09 in1019.0 mb 0.00 in0.0 mm 0.00 in0.0 mm 0.00 in0.0 mm
12:15 PM 43.2°F6.2°C 42.6°F5.9°C 98% 4.4 mph E7.1 kmh E 7.4 mph11.9 kmh 30.09 in1019.0 mb 0.00 in0.0 mm 0.00 in0.0 mm 0.00 in0.0 mm
12:20 PM 43.0°F6.1°C 42.5°F5.8°C 98% 4.4 mph E7.1 kmh E 4.6 mph7.4 kmh 30.09 in1019.0 mb 0.00 in0.0 mm 0.00 in0.0 mm 0.00 in0.0 mm
12:25 PM 43.2°F6.2°C 42.6°F5.9°C 98% 4.9 mph NE7.9 kmh NE 4.9 mph7.9 kmh 30.07 in1018.3 mb 0.00 in0.0 mm 0.00 in0.0 mm 0.00 in0.0 mm
12:30 PM 43.3°F6.3°C 42.8°F6.0°C 98% 4.6 mph NE7.4 kmh NE 4.9 mph7.9 kmh 30.07 in1018.3 mb 0.00 in0.0 mm 0.00 in0.0 mm 0.00 in0.0 mm
12:35 PM 43.9°F6.6°C 43.4°F6.3°C 98% 5.5 mph NE8.9 kmh NE 5.5 mph8.9 kmh 30.07 in1018.3 mb 0.00 in0.0 mm 0.00 in0.0 mm 0.00 in0.0 mm
12:40 PM 44.1°F6.7°C 43.5°F6.4°C 98% 3.5 mph ENE5.6 kmh ENE 5.5 mph8.9 kmh 30.07 in1018.3 mb 0.00 in0.0 mm 0.00 in0.0 mm 0.00 in0.0 mm
12:45 PM 44.2°F6.8°C 43.7°F6.5°C 98% 3.5 mph E5.6 kmh E 6.0 mph9.7 kmh 30.07 in1018.3 mb 0.00 in0.0 mm 0.00 in0.0 mm 0.00 in0.0 mm
12:50 PM 44.6°F7.0°C 44.1°F6.7°C 98% 4.4 mph E7.1 kmh E 6.0 mph9.7 kmh 30.07 in1018.3 mb 0.00 in0.0 mm 0.00 in0.0 mm 0.00 in0.0 mm
12:55 PM 44.8°F7.1°C 44.3°F6.8°C 98% 2.5 mph E4.0 kmh E 5.2 mph8.4 kmh 30.07 in1018.3 mb 0.00 in0.0 mm 0.00 in0.0 mm 0.00 in0.0 mm
01:00 PM 45.0°F7.2°C 44.4°F6.9°C 98% 3.3 mph NE5.3 kmh NE 5.2 mph8.4 kmh 30.07 in1018.3 mb 0.00 in0.0 mm 0.00 in0.0 mm 0.00 in0.0 mm
01:05 PM 45.1°F7.3°C 44.6°F7.0°C 98% 3.5 mph NE5.6 kmh NE 5.2 mph8.4 kmh 30.07 in1018.3 mb 0.00 in0.0 mm 0.00 in0.0 mm 0.00 in0.0 mm
01:10 PM 45.5°F7.5°C 45.0°F7.2°C 98% 4.4 mph ENE7.1 kmh ENE 5.2 mph8.4 kmh 30.07 in1018.3 mb 0.00 in0.0 mm 0.00 in0.0 mm 0.00 in0.0 mm
01:15 PM 45.7°F7.6°C 45.1°F7.3°C 98% 6.0 mph E9.7 kmh E 6.0 mph9.7 kmh 30.07 in1018.3 mb 0.00 in0.0 mm 0.00 in0.0 mm 0.00 in0.0 mm
01:20 PM 46.2°F7.9°C 45.7°F7.6°C 98% 4.4 mph ENE7.1 kmh ENE 7.1 mph11.4 kmh 30.07 in1018.3 mb 0.00 in0.0 mm 0.00 in0.0 mm 0.00 in0.0 mm
01:25 PM 46.4°F8.0°C 45.9°F7.7°C 98% 4.6 mph ENE7.4 kmh ENE 7.1 mph11.4 kmh 30.07 in1018.3 mb 0.00 in0.0 mm 0.00 in0.0 mm 0.00 in0.0 mm
01:30 PM 46.0°F7.8°C 45.5°F7.5°C 98% 3.5 mph NNE5.6 kmh NNE 12.0 mph19.3 kmh 30.07 in1018.3 mb 0.00 in0.0 mm 0.00 in0.0 mm 0.00 in0.0 mm
01:35 PM 45.9°F7.7°C 45.3°F7.4°C 98% 4.6 mph NNE7.4 kmh NNE 12.0 mph19.3 kmh 30.07 in1018.3 mb 0.00 in0.0 mm 0.00 in0.0 mm 0.00 in0.0 mm
01:40 PM 45.5°F7.5°C 45.0°F7.2°C 98% 2.5 mph NE4.0 kmh NE 7.1 mph11.4 kmh 30.07 in1018.3 mb 0.00 in0.0 mm 0.00 in0.0 mm 0.00 in0.0 mm
01:45 PM 45.1°F7.3°C 44.6°F7.0°C 98% 4.4 mph NE7.1 kmh NE 7.1 mph11.4 kmh 30.07 in1018.3 mb 0.00 in0.0 mm 0.00 in0.0 mm 0.00 in0.0 mm
01:50 PM 45.1°F7.3°C 44.6°F7.0°C 98% 2.7 mph ENE4.3 kmh ENE 5.2 mph8.4 kmh 30.07 in1018.3 mb 0.00 in0.0 mm 0.00 in0.0 mm 0.00 in0.0 mm
01:55 PM 45.3°F7.4°C 44.8°F7.1°C 98% 5.2 mph NE8.4 kmh NE 7.1 mph11.4 kmh 30.07 in1018.3 mb 0.00 in0.0 mm 0.00 in0.0 mm 0.00 in0.0 mm
02:00 PM 45.9°F7.7°C 45.1°F7.3°C 97% 3.8 mph NE6.1 kmh NE 7.1 mph11.4 kmh 30.07 in1018.3 mb 0.00 in0.0 mm 0.00 in0.0 mm 0.00 in0.0 mm
02:05 PM 45.9°F7.7°C 45.1°F7.3°C 97% 2.5 mph ENE4.0 kmh ENE 6.0 mph9.7 kmh 30.07 in1018.3 mb 0.00 in0.0 mm 0.00 in0.0 mm 0.00 in0.0 mm
02:10 PM 46.2°F7.9°C 45.4°F7.4°C 97% 4.6 mph NE7.4 kmh NE 6.0 mph9.7 kmh 30.07 in1018.3 mb 0.00 in0.0 mm 0.00 in0.0 mm 0.00 in0.0 mm
02:15 PM 46.6°F8.1°C 45.5°F7.5°C 96% 5.2 mph NE8.4 kmh NE 5.2 mph8.4 kmh 30.07 in1018.3 mb 0.00 in0.0 mm 0.00 in0.0 mm 0.00 in0.0 mm
02:20 PM 46.8°F8.2°C 45.4°F7.4°C 95% 7.1 mph ENE11.4 kmh ENE 7.1 mph11.4 kmh 30.07 in1018.3 mb 0.00 in0.0 mm 0.00 in0.0 mm 0.00 in0.0 mm
02:25 PM 46.4°F8.0°C 45.3°F7.4°C 96% 3.0 mph ENE4.8 kmh ENE 9.6 mph15.4 kmh 30.07 in1018.3 mb 0.00 in0.0 mm 0.00 in0.0 mm 0.00 in0.0 mm
02:30 PM 43.5°F6.4°C 42.7°F5.9°C 97% 3.0 mph NE4.8 kmh NE 9.6 mph15.4 kmh 30.07 in1018.3 mb 0.00 in0.0 mm 0.00 in0.0 mm 0.00 in0.0 mm
02:35 PM 43.0°F6.1°C 42.5°F5.8°C 98% Calm Calm 7.9 mph12.7 kmh 30.07 in1018.3 mb 0.00 in0.0 mm 0.00 in0.0 mm 0.00 in0.0 mm
02:40 PM 42.4°F5.8°C 41.9°F5.5°C 98% 4.1 mph N6.6 kmh N 6.0 mph9.7 kmh 30.07 in1018.3 mb 0.05 in1.3 mm 0.60 in15.2 mm 0.05 in1.3 mm
02:45 PM 42.1°F5.6°C 41.6°F5.3°C 98% 6.5 mph N10.5 kmh N 6.5 mph10.5 kmh 30.07 in1018.3 mb 0.05 in1.3 mm 0.00 in0.0 mm 0.05 in1.3 mm
02:50 PM 42.1°F5.6°C 41.6°F5.3°C 98% 1.9 mph NNE3.1 kmh NNE 7.6 mph12.2 kmh 30.07 in1018.3 mb 0.05 in1.3 mm 0.00 in0.0 mm 0.05 in1.3 mm
02:55 PM 42.1°F5.6°C 41.6°F5.3°C 98% 3.5 mph NNE5.6 kmh NNE 7.6 mph12.2 kmh 30.07 in1018.3 mb 0.05 in1.3 mm 0.00 in0.0 mm 0.05 in1.3 mm
03:00 PM 42.3°F5.7°C 41.7°F5.4°C 98% 2.5 mph NE4.0 kmh NE 4.6 mph7.4 kmh 30.07 in1018.3 mb 0.05 in1.3 mm 0.00 in0.0 mm 0.05 in1.3 mm
03:05 PM 42.3°F5.7°C 41.7°F5.4°C 98% 1.6 mph NE2.6 kmh NE 4.6 mph7.4 kmh 30.07 in1018.3 mb 0.05 in1.3 mm 0.00 in0.0 mm 0.05 in1.3 mm
03:10 PM 42.6°F5.9°C 42.1°F5.6°C 98% Calm Calm 4.1 mph6.6 kmh 30.07 in1018.3 mb 0.05 in1.3 mm 0.00 in0.0 mm 0.05 in1.3 mm
03:15 PM 42.8°F6.0°C 42.3°F5.7°C 98% 1.6 mph ENE2.6 kmh ENE 3.3 mph5.3 kmh 30.04 in1017.3 mb 0.05 in1.3 mm 0.00 in0.0 mm 0.05 in1.3 mm
03:20 PM 43.2°F6.2°C 42.6°F5.9°C 98% Calm Calm 1.9 mph3.1 kmh 30.04 in1017.3 mb 0.05 in1.3 mm 0.00 in0.0 mm 0.05 in1.3 mm
03:25 PM 43.3°F6.3°C 42.8°F6.0°C 98% 1.9 mph E3.1 kmh E 3.8 mph6.1 kmh 30.04 in1017.3 mb 0.05 in1.3 mm 0.00 in0.0 mm 0.05 in1.3 mm
03:30 PM 43.5°F6.4°C 43.0°F6.1°C 98% Calm Calm 3.8 mph6.1 kmh 30.04 in1017.3 mb 0.05 in1.3 mm 0.00 in0.0 mm 0.05 in1.3 mm
03:35 PM 43.5°F6.4°C 43.0°F6.1°C 98% 1.4 mph E2.3 kmh E 3.8 mph6.1 kmh 30.04 in1017.3 mb 0.05 in1.3 mm 0.00 in0.0 mm 0.05 in1.3 mm
03:40 PM 43.7°F6.5°C 43.2°F6.2°C 98% Calm Calm 3.8 mph6.1 kmh 30.04 in1017.3 mb 0.00 in0.0 mm 0.00 in0.0 mm 0.05 in1.3 mm
03:45 PM 43.9°F6.6°C 43.4°F6.3°C 98% 1.9 mph E3.1 kmh E 6.8 mph10.9 kmh 30.04 in1017.3 mb 0.00 in0.0 mm 0.00 in0.0 mm 0.05 in1.3 mm
03:50 PM 43.9°F6.6°C 43.4°F6.3°C 98% 7.9 mph E12.7 kmh E 8.7 mph14.0 kmh 30.04 in1017.3 mb 0.00 in0.0 mm 0.00 in0.0 mm 0.05 in1.3 mm
03:55 PM 43.7°F6.5°C 43.2°F6.2°C 98% 6.8 mph E10.9 kmh E 8.7 mph14.0 kmh 30.04 in1017.3 mb 0.00 in0.0 mm 0.00 in0.0 mm 0.05 in1.3 mm
04:00 PM 43.5°F6.4°C 43.0°F6.1°C 98% 3.0 mph ENE4.8 kmh ENE 7.9 mph12.7 kmh 30.04 in1017.3 mb 0.00 in0.0 mm 0.00 in0.0 mm 0.05 in1.3 mm
04:05 PM 43.3°F6.3°C 42.8°F6.0°C 98% Calm Calm 6.8 mph10.9 kmh 30.04 in1017.3 mb 0.00 in0.0 mm 0.00 in0.0 mm 0.05 in1.3 mm
04:10 PM 43.2°F6.2°C 42.6°F5.9°C 98% 3.0 mph E4.8 kmh E 6.5 mph10.5 kmh 30.04 in1017.3 mb 0.00 in0.0 mm 0.00 in0.0 mm 0.05 in1.3 mm
04:15 PM 43.0°F6.1°C 42.5°F5.8°C 98% Calm Calm 6.5 mph10.5 kmh 30.04 in1017.3 mb 0.00 in0.0 mm 0.00 in0.0 mm 0.05 in1.3 mm
04:20 PM 42.8°F6.0°C 42.3°F5.7°C 98% 1.6 mph ENE2.6 kmh ENE 5.2 mph8.4 kmh 30.04 in1017.3 mb 0.00 in0.0 mm 0.00 in0.0 mm 0.05 in1.3 mm
04:25 PM 42.6°F5.9°C 42.1°F5.6°C 98% Calm Calm 4.9 mph7.9 kmh 30.04 in1017.3 mb 0.00 in0.0 mm 0.00 in0.0 mm 0.05 in1.3 mm
04:30 PM 42.4°F5.8°C 41.9°F5.5°C 98% 2.7 mph ENE4.3 kmh ENE 4.1 mph6.6 kmh 30.04 in1017.3 mb 0.00 in0.0 mm 0.00 in0.0 mm 0.05 in1.3 mm
04:35 PM 42.4°F5.8°C 41.9°F5.5°C 98% 1.9 mph NE3.1 kmh NE 4.1 mph6.6 kmh 30.04 in1017.3 mb 0.00 in0.0 mm 0.00 in0.0 mm 0.05 in1.3 mm
04:40 PM 42.3°F5.7°C 41.7°F5.4°C 98% 1.1 mph NE1.8 kmh NE 3.8 mph6.1 kmh 30.04 in1017.3 mb 0.00 in0.0 mm 0.00 in0.0 mm 0.05 in1.3 mm
04:45 PM 42.1°F5.6°C 41.6°F5.3°C 98% 2.7 mph NE4.3 kmh NE 3.5 mph5.6 kmh 30.04 in1017.3 mb 0.00 in0.0 mm 0.00 in0.0 mm 0.05 in1.3 mm
04:50 PM 41.9°F5.5°C 41.4°F5.2°C 98% Calm Calm 2.7 mph4.3 kmh 30.04 in1017.3 mb 0.00 in0.0 mm 0.00 in0.0 mm 0.05 in1.3 mm
04:55 PM 41.7°F5.4°C 41.2°F5.1°C 98% 5.2 mph NE8.4 kmh NE 5.2 mph8.4 kmh 30.04 in1017.3 mb 0.00 in0.0 mm 0.00 in0.0 mm 0.05 in1.3 mm
05:00 PM 41.7°F5.4°C 41.2°F5.1°C 98% Calm Calm 5.2 mph8.4 kmh 30.04 in1017.3 mb 0.00 in0.0 mm 0.00 in0.0 mm 0.05 in1.3 mm
05:05 PM 41.7°F5.4°C 41.2°F5.1°C 98% 1.4 mph E2.3 kmh E 5.2 mph8.4 kmh 30.04 in1017.3 mb 0.00 in0.0 mm 0.00 in0.0 mm 0.05 in1.3 mm
05:10 PM 41.5°F5.3°C 41.0°F5.0°C 98% 4.4 mph NE7.1 kmh NE 4.4 mph7.1 kmh 30.04 in1017.3 mb 0.00 in0.0 mm 0.00 in0.0 mm 0.05 in1.3 mm
05:15 PM 41.5°F5.3°C 41.0°F5.0°C 98% 4.1 mph NE6.6 kmh NE 4.4 mph7.1 kmh 30.04 in1017.3 mb 0.00 in0.0 mm 0.00 in0.0 mm 0.05 in1.3 mm
05:20 PM 41.4°F5.2°C 40.8°F4.9°C 98% 3.3 mph NE5.3 kmh NE 4.4 mph7.1 kmh 30.04 in1017.3 mb 0.00 in0.0 mm 0.00 in0.0 mm 0.05 in1.3 mm
05:25 PM 41.4°F5.2°C 40.8°F4.9°C 98% 2.7 mph NE4.3 kmh NE 4.1 mph6.6 kmh 30.04 in1017.3 mb 0.00 in0.0 mm 0.00 in0.0 mm 0.05 in1.3 mm
05:30 PM 41.2°F5.1°C 40.7°F4.8°C 98% 1.4 mph ENE2.3 kmh ENE 4.9 mph7.9 kmh 30.04 in1017.3 mb 0.00 in0.0 mm 0.00 in0.0 mm 0.05 in1.3 mm
05:35 PM 41.0°F5.0°C 40.5°F4.7°C 98% Calm Calm 4.9 mph7.9 kmh 30.04 in1017.3 mb 0.00 in0.0 mm 0.00 in0.0 mm 0.05 in1.3 mm
05:40 PM 41.0°F5.0°C 40.5°F4.7°C 98% 1.9 mph NE3.1 kmh NE 4.9 mph7.9 kmh 30.04 in1017.3 mb 0.00 in0.0 mm 0.00 in0.0 mm 0.05 in1.3 mm
05:45 PM 40.8°F4.9°C 40.3°F4.6°C 98% 1.1 mph NNE1.8 kmh NNE 4.6 mph7.4 kmh 30.04 in1017.3 mb 0.00 in0.0 mm 0.00 in0.0 mm 0.05 in1.3 mm
05:50 PM 40.6°F4.8°C 40.1°F4.5°C 98% 2.5 mph N4.0 kmh N 6.8 mph10.9 kmh 30.04 in1017.3 mb 0.00 in0.0 mm 0.00 in0.0 mm 0.05 in1.3 mm
05:55 PM 40.6°F4.8°C 40.1°F4.5°C 98% 3.0 mph NNE4.8 kmh NNE 6.8 mph10.9 kmh 30.04 in1017.3 mb 0.00 in0.0 mm 0.00 in0.0 mm 0.05 in1.3 mm
06:00 PM 40.5°F4.7°C 39.9°F4.4°C 98% 1.1 mph NE1.8 kmh NE 5.2 mph8.4 kmh 30.07 in1018.3 mb 0.00 in0.0 mm 0.00 in0.0 mm 0.05 in1.3 mm
06:05 PM 40.5°F4.7°C 39.9°F4.4°C 98% 3.5 mph NE5.6 kmh NE 5.2 mph8.4 kmh 30.07 in1018.3 mb 0.00 in0.0 mm 0.00 in0.0 mm 0.05 in1.3 mm
06:10 PM 40.3°F4.6°C 39.8°F4.3°C 98% 3.5 mph N5.6 kmh N 5.2 mph8.4 kmh 30.07 in1018.3 mb 0.00 in0.0 mm 0.00 in0.0 mm 0.05 in1.3 mm
06:15 PM 40.3°F4.6°C 39.8°F4.3°C 98% 2.5 mph N4.0 kmh N 4.4 mph7.1 kmh 30.04 in1017.3 mb 0.00 in0.0 mm 0.00 in0.0 mm 0.05 in1.3 mm
06:20 PM 40.3°F4.6°C 39.8°F4.3°C 98% 5.2 mph N8.4 kmh N 5.7 mph9.2 kmh 30.04 in1017.3 mb 0.00 in0.0 mm 0.00 in0.0 mm 0.05 in1.3 mm
06:25 PM 40.3°F4.6°C 39.8°F4.3°C 98% 2.5 mph N4.0 kmh N 5.7 mph9.2 kmh 30.04 in1017.3 mb 0.00 in0.0 mm 0.00 in0.0 mm 0.05 in1.3 mm
06:30 PM 40.1°F4.5°C 39.6°F4.2°C 98% 5.7 mph NNE9.2 kmh NNE 5.7 mph9.2 kmh 30.04 in1017.3 mb 0.00 in0.0 mm 0.00 in0.0 mm 0.05 in1.3 mm
06:35 PM 40.1°F4.5°C 39.6°F4.2°C 98% 5.7 mph NNE9.2 kmh NNE 5.7 mph9.2 kmh 30.04 in1017.3 mb 0.00 in0.0 mm 0.00 in0.0 mm 0.05 in1.3 mm
06:40 PM 39.9°F4.4°C 39.4°F4.1°C 98% 4.4 mph N7.1 kmh N 5.7 mph9.2 kmh 30.04 in1017.3 mb 0.00 in0.0 mm 0.00 in0.0 mm 0.05 in1.3 mm
06:45 PM 39.9°F4.4°C 39.4°F4.1°C 98% 3.0 mph N4.8 kmh N 5.7 mph9.2 kmh 30.04 in1017.3 mb 0.00 in0.0 mm 0.00 in0.0 mm 0.05 in1.3 mm
06:50 PM 39.9°F4.4°C 39.4°F4.1°C 98% 5.2 mph N8.4 kmh N 6.0 mph9.7 kmh 30.04 in1017.3 mb 0.00 in0.0 mm 0.00 in0.0 mm 0.05 in1.3 mm
06:55 PM 39.9°F4.4°C 39.4°F4.1°C 98% 1.9 mph N3.1 kmh N 7.4 mph11.9 kmh 30.04 in1017.3 mb 0.00 in0.0 mm 0.00 in0.0 mm 0.05 in1.3 mm
07:00 PM 39.7°F4.3°C 39.2°F4.0°C 98% 3.0 mph NNE4.8 kmh NNE 7.4 mph11.9 kmh 30.04 in1017.3 mb 0.00 in0.0 mm 0.00 in0.0 mm 0.05 in1.3 mm
07:05 PM 39.7°F4.3°C 39.2°F4.0°C 98% 4.1 mph NE6.6 kmh NE 6.8 mph10.9 kmh 30.04 in1017.3 mb 0.00 in0.0 mm 0.00 in0.0 mm 0.05 in1.3 mm
07:10 PM 39.9°F4.4°C 39.4°F4.1°C 98% 2.5 mph NE4.0 kmh NE 6.0 mph9.7 kmh 30.04 in1017.3 mb 0.00 in0.0 mm 0.00 in0.0 mm 0.05 in1.3 mm
07:15 PM 39.7°F4.3°C 39.2°F4.0°C 98% 3.3 mph NNE5.3 kmh NNE 4.9 mph7.9 kmh 30.04 in1017.3 mb 0.00 in0.0 mm 0.00 in0.0 mm 0.05 in1.3 mm
07:20 PM 39.7°F4.3°C 39.2°F4.0°C 98% 5.7 mph NNE9.2 kmh NNE 5.7 mph9.2 kmh 30.04 in1017.3 mb 0.00 in0.0 mm 0.00 in0.0 mm 0.05 in1.3 mm
07:25 PM 39.7°F4.3°C 39.2°F4.0°C 98% 6.5 mph NNE10.5 kmh NNE 7.1 mph11.4 kmh 30.04 in1017.3 mb 0.00 in0.0 mm 0.00 in0.0 mm 0.05 in1.3 mm
07:30 PM 39.9°F4.4°C 39.4°F4.1°C 98% 3.0 mph NNE4.8 kmh NNE 7.1 mph11.4 kmh 30.04 in1017.3 mb 0.00 in0.0 mm 0.00 in0.0 mm 0.05 in1.3 mm
07:35 PM 39.9°F4.4°C 39.4°F4.1°C 98% 4.4 mph NNE7.1 kmh NNE 6.5 mph10.5 kmh 30.04 in1017.3 mb 0.00 in0.0 mm 0.00 in0.0 mm 0.05 in1.3 mm
07:40 PM 39.7°F4.3°C 39.2°F4.0°C 98% 2.7 mph NE4.3 kmh NE 5.2 mph8.4 kmh 30.04 in1017.3 mb 0.00 in0.0 mm 0.00 in0.0 mm 0.05 in1.3 mm
07:45 PM 39.6°F4.2°C 39.0°F3.9°C 98% 3.0 mph NNE4.8 kmh NNE 5.2 mph8.4 kmh 30.04 in1017.3 mb 0.00 in0.0 mm 0.00 in0.0 mm 0.05 in1.3 mm
07:50 PM 39.6°F4.2°C 39.0°F3.9°C 98% Calm Calm 4.9 mph7.9 kmh 30.04 in1017.3 mb 0.00 in0.0 mm 0.00 in0.0 mm 0.05 in1.3 mm
07:55 PM 39.6°F4.2°C 39.0°F3.9°C 98% 3.0 mph NE4.8 kmh NE 6.0 mph9.7 kmh 30.04 in1017.3 mb 0.00 in0.0 mm 0.00 in0.0 mm 0.05 in1.3 mm
08:00 PM 39.4°F4.1°C 38.9°F3.8°C 98% 5.7 mph N9.2 kmh N 6.5 mph10.5 kmh 30.04 in1017.3 mb 0.00 in0.0 mm 0.00 in0.0 mm 0.05 in1.3 mm
08:05 PM 39.4°F4.1°C 38.9°F3.8°C 98% 3.3 mph N5.3 kmh N 6.5 mph10.5 kmh 30.04 in1017.3 mb 0.00 in0.0 mm 0.00 in0.0 mm 0.05 in1.3 mm
08:10 PM 39.2°F4.0°C 38.7°F3.7°C 98% 2.7 mph N4.3 kmh N 7.1 mph11.4 kmh 30.04 in1017.3 mb 0.00 in0.0 mm 0.00 in0.0 mm 0.05 in1.3 mm
08:15 PM 39.2°F4.0°C 38.7°F3.7°C 98% 1.1 mph N1.8 kmh N 7.1 mph11.4 kmh 30.04 in1017.3 mb 0.00 in0.0 mm 0.00 in0.0 mm 0.05 in1.3 mm
08:20 PM 39.2°F4.0°C 38.7°F3.7°C 98% 3.0 mph ENE4.8 kmh ENE 3.5 mph5.6 kmh 30.04 in1017.3 mb 0.00 in0.0 mm 0.00 in0.0 mm 0.05 in1.3 mm
08:25 PM 39.0°F3.9°C 38.5°F3.6°C 98% 3.0 mph NE4.8 kmh NE 5.2 mph8.4 kmh 30.04 in1017.3 mb 0.00 in0.0 mm 0.00 in0.0 mm 0.05 in1.3 mm
08:30 PM 39.0°F3.9°C 38.5°F3.6°C 98% 3.5 mph N5.6 kmh N 7.6 mph12.2 kmh 30.04 in1017.3 mb 0.00 in0.0 mm 0.00 in0.0 mm 0.05 in1.3 mm
08:35 PM 38.8°F3.8°C 38.3°F3.5°C 98% 4.1 mph NNE6.6 kmh NNE 9.6 mph15.4 kmh 30.04 in1017.3 mb 0.00 in0.0 mm 0.00 in0.0 mm 0.05 in1.3 mm
08:40 PM 38.8°F3.8°C 38.3°F3.5°C 98% 4.6 mph NNE7.4 kmh NNE 9.6 mph15.4 kmh 30.04 in1017.3 mb 0.00 in0.0 mm 0.00 in0.0 mm 0.05 in1.3 mm
08:45 PM 38.7°F3.7°C 38.1°F3.4°C 98% Calm Calm 4.6 mph7.4 kmh 30.04 in1017.3 mb 0.00 in0.0 mm 0.00 in0.0 mm 0.05 in1.3 mm
08:50 PM 38.7°F3.7°C 38.1°F3.4°C 98% 2.7 mph N4.3 kmh N 4.6 mph7.4 kmh 30.04 in1017.3 mb 0.00 in0.0 mm 0.00 in0.0 mm 0.05 in1.3 mm
08:55 PM 38.5°F3.6°C 38.0°F3.3°C 98% 3.3 mph N5.3 kmh N 4.1 mph6.6 kmh 30.04 in1017.3 mb 0.00 in0.0 mm 0.00 in0.0 mm 0.05 in1.3 mm
09:00 PM 38.5°F3.6°C 38.0°F3.3°C 98% 2.5 mph N4.0 kmh N 5.7 mph9.2 kmh 30.04 in1017.3 mb 0.00 in0.0 mm 0.00 in0.0 mm 0.05 in1.3 mm
09:05 PM 38.3°F3.5°C 37.8°F3.2°C 98% 1.1 mph N1.8 kmh N 5.7 mph9.2 kmh 30.04 in1017.3 mb 0.00 in0.0 mm 0.00 in0.0 mm 0.05 in1.3 mm
09:10 PM 38.1°F3.4°C 37.6°F3.1°C 98% 4.6 mph N7.4 kmh N 4.6 mph7.4 kmh 30.04 in1017.3 mb 0.00 in0.0 mm 0.00 in0.0 mm 0.05 in1.3 mm
09:15 PM 38.1°F3.4°C 37.6°F3.1°C 98% 1.9 mph NNW3.1 kmh NNW 4.6 mph7.4 kmh 30.04 in1017.3 mb 0.00 in0.0 mm 0.00 in0.0 mm 0.05 in1.3 mm
09:20 PM 38.1°F3.4°C 37.6°F3.1°C 98% 3.5 mph N5.6 kmh N 4.6 mph7.4 kmh 30.04 in1017.3 mb 0.00 in0.0 mm 0.00 in0.0 mm 0.05 in1.3 mm
09:25 PM 37.9°F3.3°C 37.4°F3.0°C 98% 4.4 mph N7.1 kmh N 4.9 mph7.9 kmh 30.01 in1016.3 mb 0.00 in0.0 mm 0.00 in0.0 mm 0.05 in1.3 mm
09:30 PM 37.8°F3.2°C 37.2°F2.9°C 98% 7.9 mph N12.7 kmh N 7.9 mph12.7 kmh 30.01 in1016.3 mb 0.00 in0.0 mm 0.00 in0.0 mm 0.05 in1.3 mm
09:35 PM 37.8°F3.2°C 37.2°F2.9°C 98% 5.5 mph N8.9 kmh N 7.9 mph12.7 kmh 30.01 in1016.3 mb 0.00 in0.0 mm 0.00 in0.0 mm 0.05 in1.3 mm
09:40 PM 37.6°F3.1°C 37.1°F2.8°C 98% 4.4 mph NNE7.1 kmh NNE 7.9 mph12.7 kmh 30.01 in1016.3 mb 0.00 in0.0 mm 0.00 in0.0 mm 0.05 in1.3 mm
09:45 PM 37.6°F3.1°C 37.1°F2.8°C 98% 5.2 mph N8.4 kmh N 7.1 mph11.4 kmh 30.01 in1016.3 mb 0.00 in0.0 mm 0.00 in0.0 mm 0.05 in1.3 mm
09:50 PM 37.6°F3.1°C 37.1°F2.8°C 98% 2.5 mph NNW4.0 kmh NNW 5.2 mph8.4 kmh 30.01 in1016.3 mb 0.00 in0.0 mm 0.00 in0.0 mm 0.05 in1.3 mm
09:55 PM 37.6°F3.1°C 37.1°F2.8°C 98% 3.0 mph N4.8 kmh N 5.2 mph8.4 kmh 30.01 in1016.3 mb 0.00 in0.0 mm 0.00 in0.0 mm 0.05 in1.3 mm
10:00 PM 37.6°F3.1°C 37.1°F2.8°C 98% 3.3 mph N5.3 kmh N 6.0 mph9.7 kmh 30.01 in1016.3 mb 0.00 in0.0 mm 0.00 in0.0 mm 0.05 in1.3 mm
10:05 PM 37.8°F3.2°C 37.2°F2.9°C 98% 1.6 mph NE2.6 kmh NE 6.0 mph9.7 kmh 30.01 in1016.3 mb 0.00 in0.0 mm 0.00 in0.0 mm 0.05 in1.3 mm
10:10 PM 37.8°F3.2°C 37.2°F2.9°C 98% 3.3 mph NE5.3 kmh NE 5.7 mph9.2 kmh 30.01 in1016.3 mb 0.00 in0.0 mm 0.00 in0.0 mm 0.05 in1.3 mm
10:15 PM 37.8°F3.2°C 37.2°F2.9°C 98% 3.3 mph N5.3 kmh N 4.6 mph7.4 kmh 30.01 in1016.3 mb 0.00 in0.0 mm 0.00 in0.0 mm 0.05 in1.3 mm
10:20 PM 37.8°F3.2°C 37.2°F2.9°C 98% 4.4 mph NNE7.1 kmh NNE 4.6 mph7.4 kmh 30.01 in1016.3 mb 0.00 in0.0 mm 0.00 in0.0 mm 0.05 in1.3 mm
10:25 PM 37.9°F3.3°C 37.4°F3.0°C 98% 8.7 mph NE14.0 kmh NE 8.7 mph14.0 kmh 30.01 in1016.3 mb 0.00 in0.0 mm 0.00 in0.0 mm 0.05 in1.3 mm
10:30 PM 37.9°F3.3°C 37.4°F3.0°C 98% 2.5 mph NE4.0 kmh NE 8.7 mph14.0 kmh 30.01 in1016.3 mb 0.00 in0.0 mm 0.00 in0.0 mm 0.05 in1.3 mm
10:35 PM 37.9°F3.3°C 37.4°F3.0°C 98% 1.9 mph NNE3.1 kmh NNE 8.7 mph14.0 kmh 30.01 in1016.3 mb 0.00 in0.0 mm 0.00 in0.0 mm 0.05 in1.3 mm
10:40 PM 37.9°F3.3°C 37.4°F3.0°C 98% 4.9 mph N7.9 kmh N 6.0 mph9.7 kmh 30.01 in1016.3 mb 0.00 in0.0 mm 0.00 in0.0 mm 0.05 in1.3 mm
10:45 PM 37.9°F3.3°C 37.4°F3.0°C 98% 3.3 mph NE5.3 kmh NE 4.9 mph7.9 kmh 30.01 in1016.3 mb 0.00 in0.0 mm 0.00 in0.0 mm 0.05 in1.3 mm
10:50 PM 37.9°F3.3°C 37.4°F3.0°C 98% Calm Calm 5.5 mph8.9 kmh 30.01 in1016.3 mb 0.00 in0.0 mm 0.00 in0.0 mm 0.05 in1.3 mm
10:55 PM 37.9°F3.3°C 37.4°F3.0°C 98% Calm Calm 5.5 mph8.9 kmh 30.01 in1016.3 mb 0.00 in0.0 mm 0.00 in0.0 mm 0.05 in1.3 mm
11:00 PM 37.9°F3.3°C 37.4°F3.0°C 98% 4.6 mph ENE7.4 kmh ENE 6.8 mph10.9 kmh 30.01 in1016.3 mb 0.00 in0.0 mm 0.00 in0.0 mm 0.05 in1.3 mm
11:05 PM 37.9°F3.3°C 37.4°F3.0°C 98% 3.0 mph NE4.8 kmh NE 6.8 mph10.9 kmh 30.01 in1016.3 mb 0.00 in0.0 mm 0.00 in0.0 mm 0.05 in1.3 mm
11:10 PM 37.9°F3.3°C 37.4°F3.0°C 98% 1.4 mph N2.3 kmh N 4.6 mph7.4 kmh 30.01 in1016.3 mb 0.00 in0.0 mm 0.00 in0.0 mm 0.05 in1.3 mm
11:15 PM 37.9°F3.3°C 37.4°F3.0°C 98% 2.7 mph ENE4.3 kmh ENE 4.9 mph7.9 kmh 29.98 in1015.2 mb 0.00 in0.0 mm 0.00 in0.0 mm 0.05 in1.3 mm
11:20 PM 37.9°F3.3°C 37.4°F3.0°C 98% Calm Calm 4.9 mph7.9 kmh 29.98 in1015.2 mb 0.00 in0.0 mm 0.00 in0.0 mm 0.05 in1.3 mm
11:25 PM 37.9°F3.3°C 37.4°F3.0°C 98% Calm Calm 4.4 mph7.1 kmh 29.98 in1015.2 mb 0.00 in0.0 mm 0.00 in0.0 mm 0.05 in1.3 mm
11:30 PM 37.9°F3.3°C 37.4°F3.0°C 98% 3.5 mph NNE5.6 kmh NNE 3.8 mph6.1 kmh 29.98 in1015.2 mb 0.00 in0.0 mm 0.00 in0.0 mm 0.05 in1.3 mm
11:35 PM 37.9°F3.3°C 37.4°F3.0°C 98% 2.7 mph NNE4.3 kmh NNE 5.2 mph8.4 kmh 29.98 in1015.2 mb 0.00 in0.0 mm 0.00 in0.0 mm 0.05 in1.3 mm
11:40 PM 37.9°F3.3°C 37.4°F3.0°C 98% 3.0 mph NE4.8 kmh NE 5.2 mph8.4 kmh 29.98 in1015.2 mb 0.00 in0.0 mm 0.00 in0.0 mm 0.05 in1.3 mm
11:45 PM 37.9°F3.3°C 37.4°F3.0°C 98% 1.9 mph ENE3.1 kmh ENE 4.9 mph7.9 kmh 29.98 in1015.2 mb 0.00 in0.0 mm 0.00 in0.0 mm 0.05 in1.3 mm
11:50 PM 37.9°F3.3°C 37.4°F3.0°C 98% 1.4 mph NE2.3 kmh NE 4.1 mph6.6 kmh 29.98 in1015.2 mb 0.00 in0.0 mm 0.00 in0.0 mm 0.05 in1.3 mm
11:55 PM 37.9°F3.3°C 37.4°F3.0°C 98% 3.3 mph NE5.3 kmh NE 4.6 mph7.4 kmh 29.98 in1015.2 mb 0.00 in0.0 mm 0.00 in0.0 mm 0.05 in1.3 mm